This is the latest recevied weather packets stored in our database for station/object TA8CW-13. If no packets are shown the sender has not sent any weather packets the latest 10 day(s).
| Time | Temp. | Humidity | Pressure | Rain* | Wind** | Luminosity | Snow |
|---|---|---|---|---|---|---|---|
| 1778106530 | 7.78° C | 85% | 1017.9 hPa | 0 mm | - | 0 W/m² | - |
| 1778103387 | 8.33° C | 83% | 1017.8 hPa | 0 mm | - | 0 W/m² | - |
| 1778098921 | 8.89° C | 80% | 1017.4 hPa | 0 mm | - | 0 W/m² | - |
| 1778093736 | 10.56° C | 69% | 1016.4 hPa | 0 mm | - | 0 W/m² | - |
| 1778087178 | 12.78° C | 61% | 1015.2 hPa | 0 mm | - | 4 W/m² | - |
| 1778081427 | 14.44° C | 53% | 1014.3 hPa | 0 mm | - | 265 W/m² | - |
| 1778072580 | 16.67° C | 42% | 1013.6 hPa | 0 mm | - | 549 W/m² | - |
| 1778066195 | 16.67° C | 44% | 1014.2 hPa | 0 mm | - | 724 W/m² | - |
| 1778058831 | 15° C | 44% | 1014.7 hPa | 0 mm | - | 704 W/m² | - |
| 1778049048 | 12.78° C | 62% | 1014 hPa | 0 mm | - | 550 W/m² | - |
| 1778039780 | 7.22° C | 75% | 1013.9 hPa | 0 mm | - | 8 W/m² | - |
| 1778025560 | 6.67° C | 79% | 1013.1 hPa | 0 mm | - | 0 W/m² | - |
| 1778022276 | 6.67° C | 79% | 1013.1 hPa | 0 mm | - | 0 W/m² | - |
| 1778018459 | 6.67° C | 79% | 1013 hPa | 0 mm | - | 0 W/m² | - |
| 1778014561 | 7.22° C | 83% | 1012.7 hPa | 0 mm | - | 0 W/m² | - |
| 1778010781 | 7.22° C | 84% | 1012.5 hPa | 0 mm | - | 0 W/m² | - |
| 1778004791 | 7.78° C | 85% | 1012.4 hPa | 0 mm | - | 0 W/m² | - |
| 1778000216 | 7.78° C | 83% | 1011.5 hPa | 0 mm | - | 27 W/m² | - |
| 1777985952 | 8.33° C | 81% | 1011.2 hPa | 0.76 mm | - | 196 W/m² | - |
| 1777981570 | 8.33° C | 82% | 1011.7 hPa | 1.02 mm | - | 201 W/m² | - |
| 1777976627 | 8.33° C | 82% | 1011.9 hPa | 1.27 mm | - | 196 W/m² | - |
| 1777970198 | 8.89° C | 78% | 1011.8 hPa | 0.76 mm | - | 238 W/m² | - |
| 1777962876 | 8.33° C | 81% | 1012 hPa | 0.25 mm | - | 175 W/m² | - |
| 1777955226 | 6.67° C | 94% | 1011.6 hPa | 0.51 mm | - | 30 W/m² | - |
| 1777943555 | 6.67° C | 90% | 1010.8 hPa | 0 mm | - | 0 W/m² | - |
* Rain latest hour (hover to see other rain measurements)
** Current wind speed in m/s (hover to see current wind gust speed)